Yeager Airport Charleston US
ICAO: KCRW
IATA: CRW
Category: Large
Scheduled Services: Yes

Elevation: 981 ft
TransAlt. 18000 ft.

Airport Communications:
CHARLESTON APP/DEP:128.5
ATIS:127.6
CLNC DEL:118.55
GND:121.8
ANG COMD POST/OPS:30.23
ELKINS RDO:122.2
CHARLESTON TWR:125.7
UNICOM:122.95

KCRW Zoom In..

Runways:

(A) RW 05 length 6802 ft width 150 ft
ILS 110.30 / hdg 53

(B) RW 23 length 6802 ft width 150 ft
ILS 110.30 / hdg 233

Location; KCRW
Day. 23 / Time. 21.54 Zulu
* Altimeter: 29.92
* Temperature: 07° c. 44.6°f.
* Wind from: 280° Speed 10 kn with Gusts up to 19 kn.
Dewpoint: -03° c.
Visibility: 10 Statute Miles.
Clouds: Overcast 5000 ft.

KCRW 232154Z 28010G19KT 10SM OVC050 07/M03 A2992 RMK AO2 SLP132 T00721028


Wind From 280°
Speed 10 kn.

YouTube Music Video
 
jpsmedia.com for Web Design  worldairports.se 2018   terms of use